createdAt,value
2019-05-20T00:00:11.725Z,6.93
2019-05-20T00:02:40.679Z,7.60
2019-05-20T00:05:09.843Z,8.20
2019-05-20T00:07:39.089Z,7.63
2019-05-20T00:10:09.152Z,9.23
2019-05-20T00:12:38.448Z,7.67
2019-05-20T00:15:07.548Z,8.30
2019-05-20T00:17:36.800Z,7.70
2019-05-20T00:20:06.672Z,8.60
2019-05-20T00:22:36.084Z,8.83
2019-05-20T00:25:05.604Z,9.00
2019-05-20T00:27:34.776Z,8.73
2019-05-20T00:30:04.364Z,10.03
2019-05-20T00:32:41.187Z,9.40
2019-05-20T00:35:04.501Z,10.23
2019-05-20T00:37:33.802Z,11.50
2019-05-20T00:40:03.207Z,10.93
2019-05-20T00:42:32.612Z,11.27
2019-05-20T00:45:01.581Z,11.10
2019-05-20T00:47:31.033Z,10.90
2019-05-20T00:50:00.355Z,10.80
2019-05-20T00:52:29.402Z,10.27
2019-05-20T00:54:59.115Z,11.37
2019-05-20T00:57:28.162Z,11.30
2019-05-20T00:59:57.861Z,10.47
2019-05-20T01:02:27.516Z,10.67
2019-05-20T01:04:56.963Z,12.30
2019-05-20T01:07:26.508Z,10.40
2019-05-20T01:09:55.825Z,11.80
2019-05-20T01:12:25.452Z,11.83
2019-05-20T01:14:54.496Z,11.00
2019-05-20T01:17:23.824Z,11.80
2019-05-20T01:19:53.537Z,11.73
2019-05-20T01:22:22.906Z,12.47
2019-05-20T01:24:52.336Z,12.53
2019-05-20T01:27:21.660Z,11.90
2019-05-20T01:29:50.940Z,12.27
2019-05-20T01:32:20.240Z,13.80
2019-05-20T01:34:49.361Z,13.30
2019-05-20T01:37:18.940Z,13.90
2019-05-20T01:42:19.304Z,13.60
2019-05-20T01:44:48.988Z,13.67
2019-05-20T01:47:18.111Z,14.40
2019-05-20T01:49:47.503Z,13.90
2019-05-20T01:52:16.552Z,13.87
2019-05-20T01:54:45.925Z,13.53
2019-05-20T01:57:14.982Z,14.00
2019-05-20T01:59:44.386Z,13.40
2019-05-20T02:02:13.776Z,14.83
2019-05-20T02:04:43.483Z,12.93
2019-05-20T02:07:13.202Z,13.17
2019-05-20T02:09:42.504Z,14.07
2019-05-20T02:12:12.246Z,14.60
2019-05-20T02:14:55.952Z,14.67
2019-05-20T02:17:25.008Z,14.87
2019-05-20T02:19:54.060Z,15.40
2019-05-20T02:22:23.469Z,13.27
2019-05-20T02:24:52.521Z,14.60
2019-05-20T02:27:22.137Z,14.17
2019-05-20T02:29:51.472Z,13.97
2019-05-20T02:32:20.527Z,13.40
2019-05-20T02:34:49.933Z,13.70
2019-05-20T02:37:18.988Z,14.17
2019-05-20T02:39:48.323Z,14.20
2019-05-20T02:42:17.776Z,14.13
2019-05-20T02:44:46.837Z,14.30
2019-05-20T02:47:16.225Z,13.90
2019-05-20T02:49:45.268Z,13.63
2019-05-20T02:52:14.316Z,13.73
2019-05-20T02:54:43.740Z,12.90
2019-05-20T02:57:12.847Z,11.13
2019-05-20T02:59:42.537Z,13.73
2019-05-20T03:02:11.837Z,12.57
2019-05-20T03:04:40.884Z,12.63
2019-05-20T03:07:10.209Z,13.20
2019-05-20T03:09:39.257Z,13.73
2019-05-20T03:12:08.426Z,12.87
2019-05-20T03:14:37.459Z,14.30
2019-05-20T03:17:06.803Z,14.50
2019-05-20T03:19:36.773Z,14.40
2019-05-20T03:22:05.852Z,14.37
2019-05-20T03:24:35.227Z,14.07
2019-05-20T03:27:04.606Z,13.90
2019-05-20T03:29:34.218Z,14.63
2019-05-20T03:32:03.269Z,14.37
2019-05-20T03:34:46.739Z,12.50
2019-05-20T03:37:03.124Z,12.63
2019-05-20T03:39:32.288Z,12.83
2019-05-20T03:42:01.649Z,12.67
2019-05-20T03:44:31.041Z,13.10
2019-05-20T03:47:00.091Z,13.23
2019-05-20T03:49:29.746Z,12.93
2019-05-20T03:51:58.798Z,13.27
2019-05-20T03:54:28.170Z,13.23
2019-05-20T03:56:57.812Z,12.60
2019-05-20T03:59:26.865Z,12.87
2019-05-20T04:01:56.445Z,11.50
2019-05-20T04:04:25.817Z,12.70
2019-05-20T04:06:55.264Z,12.00
2019-05-20T04:09:25.242Z,11.03
2019-05-20T04:11:54.597Z,11.70
2019-05-20T04:14:23.666Z,11.87
2019-05-20T04:16:53.369Z,12.73
2019-05-20T04:19:22.768Z,14.33
2019-05-20T04:21:51.828Z,13.27
2019-05-20T04:24:21.168Z,13.70
2019-05-20T04:26:53.596Z,12.80
2019-05-20T04:29:22.951Z,14.40
2019-05-20T04:31:52.555Z,13.20
2019-05-20T04:34:21.981Z,12.67
2019-05-20T04:36:51.868Z,12.00
2019-05-20T04:39:21.260Z,12.43
2019-05-20T04:41:50.665Z,11.00
2019-05-20T04:44:20.341Z,12.97
2019-05-20T04:46:49.981Z,11.37
2019-05-20T04:49:19.044Z,12.57
2019-05-20T04:51:48.086Z,11.10
2019-05-20T04:54:17.149Z,11.00
2019-05-20T04:56:46.565Z,12.60
2019-05-20T04:59:15.971Z,12.37
2019-05-20T05:01:45.364Z,10.63
2019-05-20T05:04:14.793Z,10.80
2019-05-20T05:06:44.169Z,11.80
2019-05-20T05:09:15.666Z,10.60
2019-05-20T05:11:44.560Z,10.77
2019-05-20T05:14:14.324Z,10.40
2019-05-20T05:16:43.655Z,11.13
2019-05-20T05:19:13.368Z,10.70
2019-05-20T05:21:43.072Z,10.13
2019-05-20T05:24:12.124Z,9.70
2019-05-20T05:26:41.176Z,9.50
2019-05-20T05:29:10.853Z,8.13
2019-05-20T05:31:40.544Z,8.93
2019-05-20T05:34:09.610Z,9.13
2019-05-20T05:36:38.952Z,8.27
2019-05-20T05:39:08.376Z,9.00
2019-05-20T05:41:37.432Z,7.80
2019-05-20T05:44:06.738Z,9.07
2019-05-20T05:46:35.793Z,8.23
2019-05-20T05:49:04.978Z,8.93
2019-05-20T05:51:34.124Z,8.77
2019-05-20T05:54:03.537Z,9.03
2019-05-20T05:56:32.929Z,8.30
2019-05-20T05:59:02.344Z,8.80
2019-05-20T06:01:31.741Z,8.80
2019-05-20T06:04:00.800Z,9.20
2019-05-20T06:06:29.848Z,7.90
2019-05-20T06:08:59.544Z,8.60
2019-05-20T06:11:28.608Z,9.07
2019-05-20T06:13:57.949Z,7.47
2019-05-20T06:16:36.572Z,8.97
2019-05-20T06:18:58.473Z,9.30
2019-05-20T06:21:27.872Z,9.67
2019-05-20T06:23:57.216Z,9.17
2019-05-20T06:26:26.590Z,8.80
2019-05-20T06:28:55.976Z,8.30
2019-05-20T06:31:25.040Z,8.63
2019-05-20T06:33:54.679Z,8.90
2019-05-20T06:36:26.853Z,9.13
2019-05-20T06:39:11.276Z,8.13
2019-05-20T06:41:42.255Z,9.37
2019-05-20T06:44:11.665Z,8.60
2019-05-20T06:46:41.068Z,9.00
2019-05-20T06:49:10.109Z,9.13
2019-05-20T06:51:39.169Z,9.57
2019-05-20T06:54:08.224Z,9.40
2019-05-20T06:56:37.864Z,7.53
2019-05-20T06:59:06.912Z,9.30
2019-05-20T07:01:36.329Z,9.03
2019-05-20T07:04:05.833Z,9.83
2019-05-20T07:06:46.020Z,9.63
2019-05-20T07:09:07.148Z,9.67
2019-05-20T07:11:36.226Z,8.70
2019-05-20T07:14:05.291Z,10.20
2019-05-20T07:16:34.356Z,11.33
2019-05-20T07:19:03.679Z,9.50
2019-05-20T07:21:33.082Z,9.97
2019-05-20T07:24:02.404Z,10.97
2019-05-20T07:26:31.757Z,10.80
2019-05-20T07:29:01.092Z,9.47
2019-05-20T07:31:30.184Z,10.53
2019-05-20T07:33:59.622Z,11.70
2019-05-20T07:36:28.977Z,10.90
2019-05-20T07:38:58.095Z,11.60
2019-05-20T07:41:27.501Z,10.53
2019-05-20T07:43:56.560Z,11.70
2019-05-20T07:46:25.666Z,10.83
2019-05-20T07:48:55.395Z,11.67
2019-05-20T07:51:25.017Z,12.80
2019-05-20T07:53:54.406Z,11.70
2019-05-20T07:56:27.093Z,12.07
2019-05-20T07:58:59.085Z,12.43
2019-05-20T08:01:28.484Z,11.10
2019-05-20T08:03:57.951Z,12.67
2019-05-20T08:06:27.051Z,11.90
2019-05-20T08:08:56.161Z,12.03
2019-05-20T08:11:25.276Z,13.30
2019-05-20T08:13:54.736Z,13.80
2019-05-20T08:16:23.860Z,13.13
2019-05-20T08:18:52.932Z,13.97
2019-05-20T08:21:22.417Z,14.57
2019-05-20T08:23:51.826Z,12.80
2019-05-20T08:26:20.902Z,12.90
2019-05-20T08:28:50.228Z,13.30
2019-05-20T08:31:19.618Z,15.37
2019-05-20T08:33:48.686Z,13.87
2019-05-20T08:36:17.814Z,13.30
2019-05-20T08:38:47.205Z,14.40
2019-05-20T08:41:16.632Z,15.30
2019-05-20T08:43:46.112Z,13.13
2019-05-20T08:46:15.169Z,13.50
2019-05-20T08:48:44.552Z,14.40
2019-05-20T08:51:14.219Z,15.70
2019-05-20T08:53:43.306Z,14.33
2019-05-20T08:56:12.378Z,15.23
2019-05-20T08:58:41.857Z,17.37
2019-05-20T09:01:12.244Z,17.10
2019-05-20T09:03:42.247Z,17.33
2019-05-20T09:06:11.673Z,18.40
2019-05-20T09:08:41.159Z,17.53
2019-05-20T09:11:10.218Z,17.37
2019-05-20T09:13:39.545Z,16.97
2019-05-20T09:16:08.961Z,17.13
2019-05-20T09:18:38.705Z,18.40
2019-05-20T09:21:08.170Z,18.30
2019-05-20T09:23:38.909Z,18.30
2019-05-20T09:26:07.951Z,18.33
2019-05-20T09:28:37.137Z,17.20
2019-05-20T09:31:07.937Z,16.53
2019-05-20T09:33:37.953Z,16.80
2019-05-20T09:36:07.203Z,17.83
2019-05-20T09:38:37.398Z,18.73
2019-05-20T09:41:06.881Z,17.93
2019-05-20T09:43:35.972Z,18.57
2019-05-20T09:46:07.978Z,18.23
2019-05-20T09:48:35.874Z,19.87
2019-05-20T09:51:04.971Z,19.40
2019-05-20T09:53:34.072Z,20.03
2019-05-20T09:56:03.701Z,21.07
2019-05-20T09:58:32.793Z,22.40
2019-05-20T10:01:02.192Z,19.90
2019-05-20T10:03:31.701Z,19.80
2019-05-20T10:06:01.250Z,21.10
2019-05-20T10:08:39.060Z,19.60
2019-05-20T10:11:01.563Z,20.27
2019-05-20T10:13:31.245Z,21.00
2019-05-20T10:16:00.292Z,22.23
2019-05-20T10:18:37.336Z,22.60
2019-05-20T10:21:01.221Z,23.17
2019-05-20T10:23:30.635Z,21.43
2019-05-20T10:25:59.696Z,22.40
2019-05-20T10:28:29.027Z,21.43
2019-05-20T10:30:58.176Z,22.87
2019-05-20T10:33:27.590Z,22.37
2019-05-20T10:35:57.300Z,22.63
2019-05-20T10:38:26.813Z,21.73
2019-05-20T10:40:56.128Z,22.67
2019-05-20T10:43:25.504Z,23.70
2019-05-20T10:45:54.825Z,23.20
2019-05-20T10:48:23.883Z,22.40
2019-05-20T10:50:52.936Z,22.43
2019-05-20T10:53:22.660Z,24.23
2019-05-20T10:55:51.784Z,25.60
2019-05-20T10:58:21.509Z,21.53
2019-05-20T11:01:01.730Z,22.90
2019-05-20T11:03:22.153Z,24.13
2019-05-20T11:05:51.575Z,23.47
2019-05-20T11:08:20.704Z,23.27
2019-05-20T11:10:50.103Z,23.07
2019-05-20T11:13:19.765Z,23.53
2019-05-20T11:15:49.108Z,23.50
2019-05-20T11:18:18.144Z,24.60
2019-05-20T11:20:47.254Z,24.10
2019-05-20T11:23:16.960Z,21.83
2019-05-20T11:25:46.669Z,23.77
2019-05-20T11:28:15.720Z,22.43
2019-05-20T11:30:45.100Z,26.07
2019-05-20T11:33:14.465Z,25.03
2019-05-20T11:35:43.904Z,25.67
2019-05-20T11:38:13.218Z,26.10
2019-05-20T11:40:42.284Z,26.07
2019-05-20T11:43:11.717Z,25.57
2019-05-20T11:45:41.280Z,25.37
2019-05-20T11:48:10.337Z,26.63
2019-05-20T11:50:39.715Z,25.43
2019-05-20T11:53:09.158Z,24.80
2019-05-20T11:55:38.513Z,29.63
2019-05-20T11:58:15.612Z,28.20
2019-05-20T12:00:39.428Z,28.90
2019-05-20T12:03:08.485Z,28.70
2019-05-20T12:05:37.856Z,30.43
2019-05-20T12:08:06.956Z,34.00
2019-05-20T12:10:36.284Z,38.60
2019-05-20T12:13:05.385Z,37.93
2019-05-20T12:15:34.973Z,22.73
2019-05-20T12:18:04.017Z,28.57
2019-05-20T12:20:33.109Z,28.73
2019-05-20T12:23:02.427Z,29.50
2019-05-20T12:25:31.487Z,30.37
2019-05-20T12:28:00.806Z,33.37
2019-05-20T12:30:29.887Z,29.03
2019-05-20T12:33:17.969Z,26.50
2019-05-20T12:35:30.265Z,25.27
2019-05-20T12:37:59.871Z,22.40
2019-05-20T12:40:29.201Z,21.10
2019-05-20T12:42:59.113Z,24.77
2019-05-20T12:45:28.217Z,27.07
2019-05-20T12:47:57.525Z,27.67
2019-05-20T12:50:46.209Z,34.30
2019-05-20T12:53:15.518Z,33.93
2019-05-20T12:55:45.388Z,35.70
2019-05-20T12:58:14.684Z,36.43
2019-05-20T13:00:44.104Z,33.63
2019-05-20T13:03:14.193Z,31.50
2019-05-20T13:05:43.293Z,33.13
2019-05-20T13:08:13.182Z,31.47
2019-05-20T13:10:42.314Z,29.20
2019-05-20T13:13:11.360Z,27.63
2019-05-20T13:15:40.741Z,27.70
2019-05-20T13:18:09.788Z,28.90
2019-05-20T13:20:39.109Z,27.87
2019-05-20T13:23:10.287Z,25.77
2019-05-20T13:25:39.529Z,25.03
2019-05-20T13:28:08.832Z,27.17
2019-05-20T13:30:38.304Z,24.70
2019-05-20T13:33:07.746Z,23.53
2019-05-20T13:35:37.309Z,25.40
2019-05-20T13:38:06.375Z,22.57
2019-05-20T13:40:46.042Z,22.63
2019-05-20T13:43:06.455Z,22.77
2019-05-20T13:45:36.294Z,20.67
2019-05-20T13:48:05.360Z,20.50
2019-05-20T13:50:34.542Z,20.70
2019-05-20T13:53:03.600Z,19.13
2019-05-20T13:55:32.647Z,17.30
2019-05-20T13:58:01.708Z,15.10
2019-05-20T14:00:30.758Z,13.13
2019-05-20T14:02:59.837Z,10.87
2019-05-20T14:05:28.972Z,11.30
2019-05-20T14:07:58.288Z,9.87
2019-05-20T14:10:27.361Z,9.80
2019-05-20T14:12:56.488Z,8.67
2019-05-20T14:15:25.541Z,8.13
2019-05-20T14:17:54.653Z,9.30
2019-05-20T14:20:23.993Z,8.67
2019-05-20T14:22:53.569Z,8.83
2019-05-20T14:25:22.897Z,10.47
2019-05-20T14:27:52.008Z,10.00
2019-05-20T14:30:21.317Z,11.00
2019-05-20T14:32:50.669Z,13.03
2019-05-20T14:35:19.719Z,12.53
2019-05-20T14:37:48.829Z,16.57
2019-05-20T14:40:17.900Z,16.87
2019-05-20T14:42:47.227Z,18.13
2019-05-20T14:45:16.309Z,18.40
2019-05-20T14:47:45.516Z,18.77
2019-05-20T14:50:14.826Z,18.80
2019-05-20T14:52:44.128Z,18.93
2019-05-20T14:55:13.458Z,18.33
2019-05-20T14:57:43.347Z,17.70
2019-05-20T15:00:12.480Z,18.13
2019-05-20T15:02:42.144Z,15.90
2019-05-20T15:05:11.456Z,16.10
2019-05-20T15:07:40.781Z,16.30
2019-05-20T15:10:10.986Z,14.23
2019-05-20T15:12:40.855Z,15.70
2019-05-20T15:15:10.674Z,15.87
2019-05-20T15:17:39.748Z,14.17
2019-05-20T15:20:08.917Z,13.70
2019-05-20T15:22:37.995Z,15.00
2019-05-20T15:25:07.264Z,13.93
2019-05-20T15:27:36.331Z,13.17
2019-05-20T15:30:07.976Z,13.43
2019-05-20T15:32:37.052Z,14.00
2019-05-20T15:35:06.140Z,15.43
2019-05-20T15:37:35.466Z,15.97
2019-05-20T15:40:05.209Z,15.50
2019-05-20T15:42:34.608Z,15.87
2019-05-20T15:45:03.744Z,15.60
2019-05-20T15:47:33.080Z,15.27
2019-05-20T15:50:04.674Z,16.23
2019-05-20T15:52:33.340Z,15.80
2019-05-20T15:55:02.807Z,16.50
2019-05-20T15:57:32.193Z,19.00
2019-05-20T16:00:01.506Z,18.93
2019-05-20T16:02:31.092Z,19.87
2019-05-20T16:05:00.670Z,20.40
2019-05-20T16:07:29.773Z,20.47
2019-05-20T16:09:59.349Z,22.40
2019-05-20T16:12:28.670Z,21.80
2019-05-20T16:14:58.239Z,22.87
2019-05-20T16:17:27.549Z,23.90
2019-05-20T16:19:56.860Z,28.87
2019-05-20T16:22:26.212Z,29.17
2019-05-20T16:24:55.772Z,27.20
2019-05-20T16:27:25.112Z,26.77
2019-05-20T16:30:05.963Z,30.33
2019-05-20T16:32:26.165Z,28.70
2019-05-20T16:34:55.212Z,29.23
2019-05-20T16:37:24.900Z,27.53
2019-05-20T16:39:53.945Z,29.17
2019-05-20T16:42:23.013Z,29.90
2019-05-20T16:44:52.149Z,28.90
2019-05-20T16:47:21.578Z,29.73
2019-05-20T16:49:51.271Z,28.47
2019-05-20T16:52:20.345Z,28.70
2019-05-20T16:54:49.908Z,29.87
2019-05-20T16:57:19.583Z,29.67
2019-05-20T16:59:48.968Z,32.13
2019-05-20T17:02:18.148Z,31.70
2019-05-20T17:04:47.574Z,31.80
2019-05-20T17:07:16.634Z,33.00
2019-05-20T17:09:46.273Z,32.90
2019-05-20T17:12:15.324Z,31.50
2019-05-20T17:14:44.978Z,32.83
2019-05-20T17:17:14.014Z,35.50
2019-05-20T17:19:43.678Z,36.80
2019-05-20T17:22:13.070Z,39.97
2019-05-20T17:24:42.116Z,39.90
2019-05-20T17:27:11.168Z,39.07
2019-05-20T17:29:40.247Z,37.97
2019-05-20T17:32:09.301Z,36.60
2019-05-20T17:34:39.012Z,38.70
2019-05-20T17:37:08.363Z,37.17
2019-05-20T17:39:38.109Z,39.77
2019-05-20T17:42:07.510Z,45.57
2019-05-20T17:44:36.622Z,50.90
2019-05-20T17:47:05.976Z,39.90
2019-05-20T17:49:35.697Z,41.77
2019-05-20T17:52:05.116Z,42.20
2019-05-20T17:54:34.500Z,36.73
2019-05-20T17:57:03.908Z,39.63
2019-05-20T17:59:33.329Z,40.37
2019-05-20T18:02:04.668Z,38.30
2019-05-20T18:04:34.050Z,41.63
2019-05-20T18:07:03.448Z,38.03
2019-05-20T18:09:34.492Z,41.63
2019-05-20T18:12:03.803Z,37.90
2019-05-20T18:14:33.214Z,38.27
2019-05-20T18:17:02.695Z,38.70
2019-05-20T18:19:51.392Z,37.40
2019-05-20T18:22:20.871Z,40.03
2019-05-20T18:24:50.360Z,46.30
2019-05-20T18:27:19.464Z,45.13
2019-05-20T18:29:48.880Z,39.20
2019-05-20T18:32:18.481Z,38.10
2019-05-20T18:34:48.071Z,40.70
2019-05-20T18:37:17.376Z,38.73
2019-05-20T18:39:46.760Z,39.77
2019-05-20T18:42:16.065Z,37.67
2019-05-20T18:44:45.921Z,36.77
2019-05-20T18:47:15.498Z,37.33
2019-05-20T18:49:44.826Z,39.13
2019-05-20T18:52:13.877Z,33.40
2019-05-20T18:54:42.937Z,28.77
2019-05-20T18:57:12.500Z,30.20
2019-05-20T18:59:41.824Z,33.00
2019-05-20T19:02:11.415Z,31.20
2019-05-20T19:04:40.524Z,31.70
2019-05-20T19:07:09.836Z,33.57
2019-05-20T19:09:39.154Z,35.10
2019-05-20T19:12:09.060Z,35.57
2019-05-20T19:14:38.124Z,37.50
2019-05-20T19:17:07.739Z,33.53
2019-05-20T19:19:37.344Z,35.83
2019-05-20T19:22:06.726Z,35.50
2019-05-20T19:24:36.058Z,36.40
2019-05-20T19:27:05.756Z,32.10
2019-05-20T19:29:35.370Z,32.93
2019-05-20T19:32:04.828Z,30.97
2019-05-20T19:34:34.136Z,32.23
2019-05-20T19:37:03.296Z,30.00
2019-05-20T19:39:33.225Z,30.77
2019-05-20T19:42:02.571Z,27.30
2019-05-20T19:44:31.972Z,26.60
2019-05-20T19:47:01.288Z,26.50
2019-05-20T19:49:31.145Z,26.83
2019-05-20T19:52:00.463Z,26.20
2019-05-20T19:54:29.796Z,23.83
2019-05-20T19:56:58.853Z,25.83
2019-05-20T19:59:27.992Z,26.03
2019-05-20T20:01:57.057Z,26.23
2019-05-20T20:04:26.116Z,25.70
2019-05-20T20:06:55.840Z,25.50
2019-05-20T20:09:25.590Z,26.30
2019-05-20T20:11:55.037Z,24.40
2019-05-20T20:14:24.900Z,24.50
2019-05-20T20:16:54.880Z,23.37
2019-05-20T20:19:24.564Z,22.87
2019-05-20T20:21:54.609Z,24.97
2019-05-20T20:24:24.214Z,21.67
2019-05-20T20:26:53.259Z,22.70
2019-05-20T20:29:22.916Z,22.47
2019-05-20T20:31:52.520Z,19.30
2019-05-20T20:34:21.924Z,19.37
2019-05-20T20:36:51.250Z,19.70
2019-05-20T20:39:20.832Z,20.40
2019-05-20T20:41:50.449Z,19.53
2019-05-20T20:44:20.044Z,20.10
2019-05-20T20:46:49.448Z,18.37
2019-05-20T20:49:37.611Z,19.73
2019-05-20T20:52:06.989Z,18.87
2019-05-20T20:54:36.961Z,18.83
2019-05-20T20:57:06.032Z,19.00
2019-05-20T20:59:35.708Z,17.63
2019-05-20T21:02:04.831Z,20.20
2019-05-20T21:04:34.520Z,20.03
2019-05-20T21:07:04.215Z,19.33
2019-05-20T21:09:33.677Z,20.43
2019-05-20T21:12:03.203Z,21.20
2019-05-20T21:14:32.333Z,21.00
2019-05-20T21:17:01.779Z,23.00
2019-05-20T21:19:31.251Z,23.90
2019-05-20T21:22:01.277Z,23.07
2019-05-20T21:24:30.337Z,25.27
2019-05-20T21:26:59.451Z,25.60
2019-05-20T21:29:32.353Z,29.13
2019-05-20T21:32:00.294Z,26.30
2019-05-20T21:34:30.001Z,30.17
2019-05-20T21:36:59.340Z,29.10
2019-05-20T21:39:28.410Z,27.57
2019-05-20T21:41:58.111Z,28.80
2019-05-20T21:44:27.515Z,28.20
2019-05-20T21:46:56.909Z,31.30
2019-05-20T21:49:26.639Z,27.90
2019-05-20T21:51:56.021Z,26.87
2019-05-20T21:54:25.076Z,27.13
2019-05-20T21:56:54.439Z,27.87
2019-05-20T21:59:24.090Z,28.40
2019-05-20T22:01:53.424Z,25.40
2019-05-20T22:04:23.132Z,24.87
2019-05-20T22:06:52.200Z,25.43
2019-05-20T22:09:22.100Z,25.53
2019-05-20T22:11:51.753Z,22.90
2019-05-20T22:14:20.800Z,24.77
2019-05-20T22:16:49.865Z,26.03
2019-05-20T22:19:19.828Z,24.60
2019-05-20T22:22:05.940Z,26.10
2019-05-20T22:24:35.357Z,24.20
2019-05-20T22:27:05.097Z,23.07
2019-05-20T22:29:34.151Z,22.73
2019-05-20T22:32:04.154Z,21.23
2019-05-20T22:34:33.204Z,20.87
2019-05-20T22:37:02.605Z,20.83
2019-05-20T22:39:31.655Z,20.37
2019-05-20T22:42:00.719Z,18.83
2019-05-20T22:44:30.053Z,18.30
2019-05-20T22:46:59.760Z,17.70
2019-05-20T22:49:29.368Z,18.07
2019-05-20T22:51:58.816Z,15.30
2019-05-20T22:54:28.179Z,19.80
2019-05-20T22:56:57.888Z,14.90
2019-05-20T22:59:27.640Z,16.40
2019-05-20T23:01:57.097Z,15.40
2019-05-20T23:04:27.213Z,13.60
2019-05-20T23:06:56.524Z,14.73
2019-05-20T23:09:26.248Z,13.40
2019-05-20T23:11:55.933Z,13.97
2019-05-20T23:14:25.240Z,14.17
2019-05-20T23:16:54.633Z,14.20
2019-05-20T23:19:24.041Z,14.57
2019-05-20T23:21:53.420Z,13.70
2019-05-20T23:24:22.840Z,12.37
2019-05-20T23:26:52.649Z,12.17
2019-05-20T23:29:22.364Z,14.70
2019-05-20T23:31:51.773Z,14.17
2019-05-20T23:34:21.165Z,15.47
2019-05-20T23:36:50.223Z,13.80
2019-05-20T23:39:19.873Z,14.30
2019-05-20T23:41:49.264Z,13.93
2019-05-20T23:44:18.345Z,14.73
2019-05-20T23:46:47.804Z,15.73
2019-05-20T23:49:16.904Z,15.50
2019-05-20T23:51:46.364Z,14.90
2019-05-20T23:54:15.488Z,14.80
2019-05-20T23:56:45.168Z,13.97
2019-05-20T23:59:14.568Z,14.90
